Time;durP1;ratioP1;P1;durP2;ratioP2;P2;SDS_P1;SDS_P2;PMS_P1;PMS_P2;Temp;Humidity;BMP_temperature;BMP_pressure;BME280_temperature;BME280_humidity;BME280_pressure;Samples;Min_cycle;Max_cycle;Signal;HPM_P1;HPM_P2
2022/10/09 00:01:12;;;;;;;8.00;1.75;;;6.10;99.90;;;;;;5013298;28;20034;-69
2022/10/09 00:03:39;;;;;;;5.43;1.40;;;6.00;99.90;;;;;;5013500;28;20497;-69
2022/10/09 00:06:07;;;;;;;3.53;1.17;;;6.00;99.90;;;;;;5012760;28;20026;-69
2022/10/09 00:08:34;;;;;;;6.88;1.52;;;5.90;99.90;;;;;;5013114;28;20033;-69
2022/10/09 00:11:07;;;;;;;4.03;1.25;;;5.80;99.90;;;;;;5013303;28;20030;-69
2022/10/09 00:13:33;;;;;;;11.15;1.58;;;5.70;99.90;;;;;;5014466;28;20076;-69
2022/10/09 00:16:03;;;;;;;9.65;1.30;;;5.70;99.90;;;;;;5013443;28;20493;-69
2022/10/09 00:18:28;;;;;;;4.68;1.05;;;5.70;99.90;;;;;;5013274;28;20041;-69
2022/10/09 00:20:54;;;;;;;7.20;1.42;;;5.60;99.90;;;;;;5012310;28;20034;-69
2022/10/09 00:23:19;;;;;;;6.18;1.70;;;5.60;99.90;;;;;;5013074;28;20057;-69
2022/10/09 00:25:58;;;;;;;8.07;1.45;;;5.70;99.90;;;;;;5012586;28;20026;-69
2022/10/09 00:28:25;;;;;;;9.52;1.92;;;5.70;99.90;;;;;;5013201;28;20022;-69
2022/10/09 00:30:51;;;;;;;14.63;2.88;;;5.70;99.90;;;;;;5013027;28;20371;-69
2022/10/09 00:33:18;;;;;;;15.18;1.52;;;5.80;99.90;;;;;;5012987;28;20022;-69
2022/10/09 00:35:43;;;;;;;11.15;1.70;;;5.80;99.90;;;;;;5016026;28;20022;-69
2022/10/09 00:38:10;;;;;;;8.68;1.55;;;5.80;99.90;;;;;;5016171;28;20026;-69
2022/10/09 00:40:36;;;;;;;4.53;1.55;;;5.70;99.90;;;;;;5016559;28;20075;-69
2022/10/09 00:43:03;;;;;;;12.10;1.75;;;5.60;99.90;;;;;;5016621;28;20120;-69
2022/10/09 00:45:30;;;;;;;10.85;1.67;;;5.60;99.90;;;;;;5016286;28;20056;-69
2022/10/09 00:48:00;;;;;;;8.55;1.45;;;5.50;99.90;;;;;;5015878;28;20022;-69
2022/10/09 00:50:37;;;;;;;5.80;1.52;;;5.50;99.90;;;;;;5016335;28;20026;-68
2022/10/09 00:53:03;;;;;;;3.30;1.13;;;5.50;99.90;;;;;;5016458;28;20038;-69
2022/10/09 00:55:30;;;;;;;9.05;1.60;;;5.40;99.90;;;;;;5016291;28;20088;-69
2022/10/09 00:57:58;;;;;;;8.77;2.22;;;5.40;99.90;;;;;;5015667;28;20107;-69
2022/10/09 01:00:25;;;;;;;7.40;1.35;;;5.30;99.90;;;;;;5016062;28;20597;-69
2022/10/09 01:02:52;;;;;;;9.98;1.50;;;5.30;99.90;;;;;;5016053;28;20018;-69
2022/10/09 01:05:18;;;;;;;13.73;1.80;;;5.30;99.90;;;;;;5015967;28;20033;-69
2022/10/09 01:08:06;;;;;;;6.85;1.15;;;5.30;99.90;;;;;;5016031;28;20021;-69
2022/10/09 01:10:48;;;;;;;13.20;1.50;;;5.20;99.90;;;;;;5015577;28;20100;-69
2022/10/09 01:13:29;;;;;;;8.07;1.92;;;5.20;99.90;;;;;;5015929;28;20117;-69
2022/10/09 01:16:08;;;;;;;2.95;1.67;;;5.20;99.90;;;;;;5015821;28;20032;-69
2022/10/09 01:18:47;;;;;;;4.35;1.70;;;5.20;99.90;;;;;;5015581;28;20026;-68
2022/10/09 01:21:20;;;;;;;16.40;2.47;;;5.30;99.90;;;;;;5015768;28;20033;-69
2022/10/09 01:24:17;;;;;;;13.75;1.70;;;5.40;99.90;;;;;;5015195;28;20026;-69
2022/10/09 01:27:08;;;;;;;11.80;1.45;;;5.40;99.90;;;;;;5015602;28;20045;-69
2022/10/09 01:29:41;;;;;;;11.35;1.60;;;5.50;99.90;;;;;;5015727;28;20022;-69
2022/10/09 01:32:09;;;;;;;8.07;2.15;;;5.50;99.90;;;;;;5015742;28;20054;-69
2022/10/09 01:34:38;;;;;;;7.10;1.65;;;5.50;99.90;;;;;;5015525;28;20386;-69
2022/10/09 01:37:04;;;;;;;10.65;1.88;;;5.40;99.90;;;;;;5014898;28;20026;-68
2022/10/09 01:39:31;;;;;;;7.85;1.33;;;5.40;99.90;;;;;;5015348;28;20467;-68
2022/10/09 01:41:57;;;;;;;12.18;1.70;;;5.40;99.90;;;;;;5015350;28;20034;-68
2022/10/09 01:44:26;;;;;;;10.82;1.90;;;5.50;99.90;;;;;;5014676;28;20032;-69
2022/10/09 01:46:52;;;;;;;15.27;2.42;;;5.50;99.90;;;;;;5015450;28;20040;-69
2022/10/09 01:49:40;;;;;;;12.60;1.95;;;5.50;99.90;;;;;;5015382;28;20462;-69
2022/10/09 01:52:15;;;;;;;9.90;1.70;;;5.60;99.90;;;;;;5013346;28;20022;-69
2022/10/09 01:54:50;;;;;;;13.57;1.73;;;5.60;99.90;;;;;;5015167;28;20076;-69
2022/10/09 01:57:25;;;;;;;14.02;2.67;;;5.60;99.90;;;;;;5015555;28;20033;-69
2022/10/09 01:59:52;;;;;;;17.38;2.55;;;5.70;99.90;;;;;;5015312;28;20038;-69
2022/10/09 02:02:19;;;;;;;10.13;2.28;;;5.80;99.90;;;;;;5014677;28;20045;-69
2022/10/09 02:04:47;;;;;;;15.75;2.90;;;5.90;99.90;;;;;;5015101;28;20029;-69
2022/10/09 02:07:13;;;;;;;36.30;3.13;;;6.00;99.90;;;;;;5015031;28;20033;-69
2022/10/09 02:09:39;;;;;;;20.50;3.00;;;6.10;99.90;;;;;;5014731;28;20026;-69
2022/10/09 02:12:08;;;;;;;23.60;2.95;;;6.10;99.90;;;;;;5015263;28;20026;-69
2022/10/09 02:14:34;;;;;;;14.77;2.00;;;6.20;99.90;;;;;;5015507;28;20052;-69
2022/10/09 02:17:15;;;;;;;15.93;3.15;;;6.30;99.90;;;;;;5014664;28;20026;-69
2022/10/09 02:19:46;;;;;;;17.10;3.35;;;6.40;99.90;;;;;;5014634;28;20029;-69
2022/10/09 02:22:25;;;;;;;9.07;2.63;;;6.50;99.90;;;;;;5014876;28;20077;-68
2022/10/09 02:24:51;;;;;;;23.63;3.40;;;6.70;99.90;;;;;;5015070;28;20113;-68
2022/10/09 02:27:19;;;;;;;17.05;2.70;;;6.80;99.90;;;;;;5014621;28;20060;-68
2022/10/09 02:29:45;;;;;;;10.15;2.83;;;6.80;99.90;;;;;;5013931;28;20037;-69
2022/10/09 02:32:11;;;;;;;10.02;2.25;;;6.70;99.90;;;;;;5014452;28;20030;-69
2022/10/09 02:34:37;;;;;;;17.90;2.90;;;6.60;99.90;;;;;;5014750;28;20105;-69
2022/10/09 02:37:03;;;;;;;20.38;4.15;;;6.60;99.90;;;;;;5014199;28;20540;-69
2022/10/09 02:39:29;;;;;;;22.02;2.85;;;6.70;99.90;;;;;;5015106;28;20156;-69
2022/10/09 02:41:54;;;;;;;15.45;2.78;;;6.60;99.90;;;;;;5014673;28;20049;-69
2022/10/09 02:44:20;;;;;;;8.10;2.13;;;6.70;99.90;;;;;;5014388;28;20470;-69
2022/10/09 02:46:45;;;;;;;8.75;2.70;;;6.60;99.90;;;;;;5014200;28;20061;-68
2022/10/09 02:49:11;;;;;;;16.33;3.45;;;6.60;99.90;;;;;;5014020;28;20029;-69
2022/10/09 02:51:36;;;;;;;11.77;2.60;;;6.60;99.90;;;;;;5013543;28;20022;-68
2022/10/09 02:54:02;;;;;;;13.75;3.28;;;6.60;99.90;;;;;;5014324;28;20034;-68
2022/10/09 02:56:28;;;;;;;28.48;3.05;;;6.50;99.90;;;;;;5013671;28;20033;-68
2022/10/09 02:58:54;;;;;;;19.73;2.70;;;6.50;99.90;;;;;;5013375;28;20209;-69
2022/10/09 03:01:20;;;;;;;15.45;2.55;;;6.60;99.90;;;;;;5013891;28;20026;-69
2022/10/09 03:03:45;;;;;;;8.68;2.45;;;6.70;99.90;;;;;;5013992;28;20465;-69
2022/10/09 03:06:15;;;;;;;10.15;2.60;;;6.60;99.90;;;;;;5014097;28;20036;-69
2022/10/09 03:08:43;;;;;;;23.00;2.95;;;6.50;99.90;;;;;;5013763;28;20429;-69
2022/10/09 03:11:10;;;;;;;12.65;2.35;;;6.40;99.90;;;;;;5013756;28;20432;-69
2022/10/09 03:13:36;;;;;;;13.07;2.85;;;6.30;99.90;;;;;;5013291;28;20033;-69
2022/10/09 03:16:07;;;;;;;22.77;2.60;;;6.20;99.90;;;;;;5013822;28;20378;-69
2022/10/09 03:18:33;;;;;;;25.05;2.95;;;6.20;99.90;;;;;;5013643;28;20046;-68
2022/10/09 03:20:58;;;;;;;20.08;2.72;;;6.30;99.90;;;;;;5084957;22;20105;-67
2022/10/09 03:23:24;;;;;;;21.90;3.08;;;6.20;99.90;;;;;;5073394;28;20360;-67
2022/10/09 03:26:01;;;;;;;13.43;1.95;;;6.20;99.90;;;;;;5073360;28;20078;-67
2022/10/09 03:28:27;;;;;;;14.02;2.47;;;6.20;99.90;;;;;;5053056;28;20112;-67
2022/10/09 03:30:53;;;;;;;13.93;2.75;;;6.20;99.90;;;;;;5053234;28;20029;-66
2022/10/09 03:33:20;;;;;;;22.48;3.25;;;6.40;99.90;;;;;;5053499;28;20021;-66
2022/10/09 03:35:47;;;;;;;19.45;2.85;;;6.30;99.90;;;;;;5053208;28;20021;-67
2022/10/09 03:38:13;;;;;;;24.02;2.72;;;6.40;99.90;;;;;;5052725;28;20025;-67
2022/10/09 03:40:38;;;;;;;26.58;3.17;;;6.50;99.90;;;;;;5053233;28;20033;-67
2022/10/09 03:43:04;;;;;;;23.10;3.47;;;6.60;99.90;;;;;;5053687;28;20025;-67
2022/10/09 03:45:29;;;;;;;20.60;2.70;;;6.60;99.90;;;;;;5053327;28;20127;-67
2022/10/09 03:47:55;;;;;;;10.88;2.20;;;6.50;99.90;;;;;;5053361;28;20027;-67
2022/10/09 03:50:20;;;;;;;28.33;3.45;;;6.50;99.90;;;;;;5052490;28;20059;-67
2022/10/09 03:52:46;;;;;;;14.95;2.25;;;6.40;99.90;;;;;;5053124;28;20028;-67
2022/10/09 03:55:12;;;;;;;26.98;2.88;;;6.40;99.90;;;;;;5053481;28;20116;-67
2022/10/09 03:57:37;;;;;;;12.18;2.10;;;6.40;99.90;;;;;;5053268;28;20052;-67
2022/10/09 04:00:05;;;;;;;14.77;2.10;;;6.40;99.90;;;;;;5052539;28;20029;-67
2022/10/09 04:02:32;;;;;;;9.70;2.60;;;6.30;99.90;;;;;;5053162;28;20029;-67
2022/10/09 04:04:57;;;;;;;14.55;2.75;;;6.20;99.90;;;;;;5053112;28;20426;-67
2022/10/09 04:07:23;;;;;;;23.05;2.25;;;6.20;99.90;;;;;;5053149;28;20055;-67
2022/10/09 04:09:48;;;;;;;30.67;3.67;;;6.30;99.90;;;;;;5054095;28;20480;-67
2022/10/09 04:12:14;;;;;;;14.13;2.35;;;6.50;99.90;;;;;;5057029;28;20499;-66
2022/10/09 04:14:40;;;;;;;11.50;2.42;;;6.40;99.90;;;;;;5056713;28;20111;-68
2022/10/09 04:17:06;;;;;;;27.63;3.55;;;6.30;99.90;;;;;;5056662;28;20029;-68
2022/10/09 04:19:31;;;;;;;14.40;2.17;;;6.30;99.90;;;;;;5055950;28;20552;-67
2022/10/09 04:21:57;;;;;;;13.90;2.67;;;6.30;99.90;;;;;;5056884;28;20033;-67
2022/10/09 04:24:22;;;;;;;9.38;1.67;;;6.30;99.90;;;;;;5056681;28;20110;-67
2022/10/09 04:26:48;;;;;;;17.38;2.53;;;6.10;99.90;;;;;;5056435;28;20102;-67
2022/10/09 04:29:13;;;;;;;12.32;2.15;;;6.00;99.90;;;;;;5056379;28;20025;-67
2022/10/09 04:31:39;;;;;;;20.30;2.55;;;6.00;99.90;;;;;;5056235;28;20021;-67
2022/10/09 04:34:04;;;;;;;23.67;2.85;;;6.00;99.90;;;;;;5056328;28;20021;-67
2022/10/09 04:36:30;;;;;;;18.33;2.42;;;6.00;99.90;;;;;;5056411;28;20117;-67
2022/10/09 04:38:55;;;;;;;9.60;1.88;;;6.10;99.90;;;;;;5055738;28;20029;-67
2022/10/09 04:41:21;;;;;;;10.02;1.90;;;6.00;99.90;;;;;;5056410;28;20480;-67
2022/10/09 04:43:47;;;;;;;14.90;2.55;;;5.90;99.90;;;;;;5056145;28;20037;-67
2022/10/09 04:46:14;;;;;;;13.15;2.08;;;5.90;99.90;;;;;;5055462;28;20457;-67
2022/10/09 04:48:41;;;;;;;14.27;2.22;;;6.00;99.90;;;;;;5056117;28;20025;-67
2022/10/09 04:51:08;;;;;;;12.50;2.53;;;5.90;99.90;;;;;;5056138;28;20121;-67
2022/10/09 04:53:34;;;;;;;21.65;2.53;;;5.90;99.90;;;;;;5056885;28;20349;-67
2022/10/09 04:56:06;;;;;;;9.50;2.22;;;5.90;99.90;;;;;;5055460;28;20028;-67
2022/10/09 04:58:34;;;;;;;7.22;1.83;;;5.90;99.90;;;;;;5056069;28;20017;-67
2022/10/09 05:00:59;;;;;;;9.70;1.70;;;5.80;99.90;;;;;;5055706;28;20082;-67
2022/10/09 05:03:25;;;;;;;15.98;2.35;;;5.80;99.90;;;;;;5055853;28;20024;-67
2022/10/09 05:05:50;;;;;;;17.10;2.10;;;5.70;99.90;;;;;;5055817;28;20112;-67
2022/10/09 05:08:16;;;;;;;10.05;2.25;;;5.70;99.90;;;;;;5055344;28;20122;-67
2022/10/09 05:10:41;;;;;;;12.32;2.45;;;5.70;99.90;;;;;;5055747;28;20103;-67
2022/10/09 05:13:07;;;;;;;16.20;2.45;;;5.70;99.90;;;;;;5056192;28;20030;-67
2022/10/09 05:15:36;;;;;;;7.35;2.10;;;5.70;99.90;;;;;;5055952;28;20029;-67
2022/10/09 05:18:02;;;;;;;22.27;2.92;;;5.60;99.90;;;;;;5055547;28;20024;-67
2022/10/09 05:20:27;;;;;;;18.38;2.80;;;5.70;99.90;;;;;;5054212;28;20132;-67
2022/10/09 05:22:53;;;;;;;10.60;2.90;;;5.80;99.90;;;;;;5055455;28;20060;-67
2022/10/09 05:25:18;;;;;;;13.05;3.05;;;5.90;99.90;;;;;;5055745;28;20074;-67
2022/10/09 05:27:44;;;;;;;21.33;3.25;;;5.90;99.90;;;;;;5055342;28;20062;-67
2022/10/09 05:30:10;;;;;;;11.57;2.67;;;5.90;99.90;;;;;;5055275;28;20013;-67
2022/10/09 05:32:35;;;;;;;17.25;2.65;;;5.90;99.90;;;;;;5054798;28;20029;-67
2022/10/09 05:35:01;;;;;;;28.02;4.45;;;5.80;99.90;;;;;;5055194;28;20099;-67
2022/10/09 05:37:26;;;;;;;14.20;3.78;;;5.80;99.90;;;;;;5055429;28;20032;-67
2022/10/09 05:39:52;;;;;;;13.65;3.20;;;5.70;99.90;;;;;;5055071;28;20029;-67
2022/10/09 05:42:17;;;;;;;16.70;2.17;;;5.70;99.90;;;;;;5054637;28;20028;-67
2022/10/09 05:44:43;;;;;;;17.52;2.70;;;5.70;99.90;;;;;;5054940;28;20025;-67
2022/10/09 05:47:08;;;;;;;13.43;2.60;;;5.70;99.90;;;;;;5055019;28;20029;-67
2022/10/09 05:49:34;;;;;;;9.75;2.53;;;5.60;99.90;;;;;;5055271;28;20017;-67
2022/10/09 05:51:59;;;;;;;9.98;2.30;;;5.60;99.90;;;;;;5054893;28;20071;-67
2022/10/09 05:54:26;;;;;;;19.02;3.10;;;5.60;99.90;;;;;;5055097;28;20043;-68
2022/10/09 05:56:51;;;;;;;19.48;3.10;;;5.70;99.90;;;;;;5054356;28;20447;-67
2022/10/09 05:59:18;;;;;;;18.00;3.20;;;5.70;99.90;;;;;;5054654;28;20102;-67
2022/10/09 06:01:47;;;;;;;18.38;2.72;;;5.80;99.90;;;;;;5054727;28;20049;-67
2022/10/09 06:04:19;;;;;;;29.83;3.03;;;5.90;99.90;;;;;;5054216;28;20066;-66
2022/10/09 06:06:47;;;;;;;13.95;2.80;;;6.00;99.90;;;;;;5054855;28;20025;-67
2022/10/09 06:09:17;;;;;;;20.70;3.63;;;6.10;99.90;;;;;;5054493;28;20439;-67
2022/10/09 06:11:43;;;;;;;28.92;3.63;;;6.20;99.90;;;;;;5054515;28;20017;-67
2022/10/09 06:14:10;;;;;;;20.85;3.92;;;6.30;99.90;;;;;;5054472;28;20025;-67
2022/10/09 06:16:39;;;;;;;22.13;4.10;;;6.50;99.90;;;;;;5054404;28;20024;-67
2022/10/09 06:19:06;;;;;;;19.75;4.07;;;6.60;99.90;;;;;;5053753;28;20112;-67
2022/10/09 06:21:32;;;;;;;15.43;4.15;;;6.90;99.90;;;;;;5054325;28;20037;-67
2022/10/09 06:23:59;;;;;;;23.83;3.92;;;7.00;99.90;;;;;;5054484;28;20099;-67
2022/10/09 06:26:30;;;;;;;21.13;4.88;;;7.10;99.90;;;;;;5053659;28;20503;-67
2022/10/09 06:28:59;;;;;;;36.97;4.65;;;7.20;99.90;;;;;;5054377;28;20127;-67
2022/10/09 06:31:28;;;;;;;22.98;4.20;;;7.30;99.90;;;;;;5053585;28;20021;-67
2022/10/09 06:33:54;;;;;;;19.73;3.88;;;7.30;99.90;;;;;;5054136;28;20025;-67
2022/10/09 06:36:24;;;;;;;17.75;3.13;;;7.40;99.90;;;;;;5054045;28;20021;-67
2022/10/09 06:38:50;;;;;;;24.15;3.78;;;7.40;99.90;;;;;;5054300;28;20051;-67
2022/10/09 06:41:18;;;;;;;23.52;3.90;;;7.40;99.90;;;;;;5053618;28;20102;-67
2022/10/09 06:43:49;;;;;;;32.50;4.03;;;7.50;99.90;;;;;;5053925;28;20033;-67
2022/10/09 06:46:15;;;;;;;8.50;2.45;;;7.40;99.90;;;;;;5054077;28;20024;-67
2022/10/09 06:48:41;;;;;;;13.68;3.58;;;7.40;99.90;;;;;;5053769;28;20025;-67
2022/10/09 06:51:13;;;;;;;17.80;3.55;;;7.40;99.90;;;;;;5053738;28;20071;-67
2022/10/09 06:53:46;;;;;;;24.60;3.90;;;7.40;99.90;;;;;;5047493;28;20021;-67
2022/10/09 06:56:11;;;;;;;21.15;3.38;;;7.40;99.90;;;;;;5033157;28;20021;-67
2022/10/09 06:58:38;;;;;;;23.88;4.45;;;7.50;99.90;;;;;;5032304;28;20342;-66
2022/10/09 07:01:10;;;;;;;9.73;3.10;;;7.60;99.90;;;;;;5032832;28;20147;-67
2022/10/09 07:03:37;;;;;;;28.17;4.97;;;7.70;99.90;;;;;;5031838;28;20033;-67
2022/10/09 07:06:12;;;;;;;25.63;5.78;;;7.90;99.90;;;;;;5033555;28;20029;-67
2022/10/09 07:08:40;;;;;;;29.20;4.68;;;8.10;99.90;;;;;;5033163;28;20056;-67
2022/10/09 07:11:21;;;;;;;31.00;3.88;;;8.20;99.90;;;;;;5033284;28;20029;-67
2022/10/09 07:13:49;;;;;;;26.13;4.32;;;8.30;99.90;;;;;;5033584;28;20026;-67
2022/10/09 07:16:22;;;;;;;22.45;5.47;;;8.30;99.90;;;;;;5033306;28;20053;-67
2022/10/09 07:18:48;;;;;;;18.83;4.28;;;8.40;99.90;;;;;;5033734;28;20369;-67
2022/10/09 07:21:14;;;;;;;16.02;4.57;;;8.50;99.90;;;;;;5033059;28;20044;-67
2022/10/09 07:23:39;;;;;;;14.85;4.05;;;8.60;99.90;;;;;;5031732;28;20029;-67
2022/10/09 07:26:26;;;;;;;26.48;5.05;;;8.70;99.90;;;;;;5032611;28;20034;-67
2022/10/09 07:28:52;;;;;;;25.73;5.03;;;8.90;99.90;;;;;;5033445;28;20026;-68
2022/10/09 07:31:18;;;;;;;21.17;4.82;;;9.00;99.90;;;;;;5033429;28;20057;-67
2022/10/09 07:33:47;;;;;;;22.38;5.60;;;9.10;99.90;;;;;;5032589;28;20065;-67
2022/10/09 07:36:12;;;;;;;24.40;5.22;;;9.20;99.90;;;;;;5033322;28;20108;-67
2022/10/09 07:38:38;;;;;;;26.13;7.25;;;9.40;99.90;;;;;;5033253;28;20057;-67
2022/10/09 07:41:06;;;;;;;20.80;7.47;;;9.70;99.90;;;;;;5033185;28;20036;-67
2022/10/09 07:43:34;;;;;;;31.35;6.53;;;9.90;99.90;;;;;;5035491;28;20040;-67
2022/10/09 07:46:01;;;;;;;26.67;6.30;;;10.00;99.90;;;;;;5037045;28;20025;-67
2022/10/09 07:48:27;;;;;;;35.42;6.78;;;10.20;99.90;;;;;;5036033;28;20049;-67
2022/10/09 07:50:53;;;;;;;33.53;6.65;;;10.30;99.90;;;;;;5037322;28;20119;-67
2022/10/09 07:53:19;;;;;;;34.63;5.60;;;10.50;99.90;;;;;;5037223;28;20425;-67
2022/10/09 07:55:46;;;;;;;38.95;5.60;;;10.60;99.90;;;;;;5037192;28;20381;-67
2022/10/09 07:58:13;;;;;;;42.28;7.13;;;10.80;99.90;;;;;;5036575;28;20559;-67
2022/10/09 08:00:39;;;;;;;35.88;6.80;;;11.00;99.90;;;;;;5037239;28;20531;-67
2022/10/09 08:03:04;;;;;;;41.83;6.32;;;11.20;99.90;;;;;;5037277;28;20041;-67
2022/10/09 08:05:30;;;;;;;25.35;6.15;;;11.40;99.90;;;;;;5037180;28;20257;-67
2022/10/09 08:07:56;;;;;;;32.38;6.03;;;11.70;99.90;;;;;;5037204;28;20025;-67
2022/10/09 08:10:22;;;;;;;24.10;5.47;;;11.80;99.90;;;;;;5036941;28;20377;-67
2022/10/09 08:12:47;;;;;;;28.00;5.88;;;11.80;99.90;;;;;;5036522;28;20032;-67
2022/10/09 08:15:13;;;;;;;34.53;6.78;;;11.90;99.90;;;;;;5036760;28;20034;-67
2022/10/09 08:17:39;;;;;;;34.13;5.93;;;12.00;99.90;;;;;;5035497;28;20033;-67
2022/10/09 08:20:05;;;;;;;22.65;5.00;;;12.10;99.90;;;;;;5032696;28;20029;-67
2022/10/09 08:22:30;;;;;;;26.67;4.78;;;12.30;99.90;;;;;;5036277;28;20396;-67
2022/10/09 08:24:56;;;;;;;31.00;4.80;;;12.40;99.90;;;;;;5023105;28;20029;-68
2022/10/09 08:27:22;;;;;;;36.00;6.25;;;12.40;99.90;;;;;;5023750;28;20014;-68
2022/10/09 08:29:48;;;;;;;41.28;4.88;;;12.40;99.90;;;;;;5037115;28;20033;-68
2022/10/09 08:32:13;;;;;;;24.20;3.92;;;12.40;99.90;;;;;;5049656;28;20025;-67
2022/10/09 08:34:39;;;;;;;22.10;3.95;;;12.40;99.90;;;;;;5034075;28;20481;-67
2022/10/09 08:37:04;;;;;;;31.25;4.43;;;12.50;99.90;;;;;;5028009;28;20029;-67
2022/10/09 08:39:31;;;;;;;21.63;4.78;;;12.70;99.90;;;;;;5056190;28;20025;-68
2022/10/09 08:42:00;;;;;;;33.28;4.57;;;12.80;99.90;;;;;;5056241;28;20048;-67
2022/10/09 08:44:47;;;;;;;19.98;3.67;;;12.90;99.90;;;;;;5055791;28;20527;-68
2022/10/09 08:47:27;;;;;;;24.13;3.53;;;12.90;99.90;;;;;;5033358;28;20030;-67
2022/10/09 08:49:59;;;;;;;31.67;3.72;;;13.20;99.90;;;;;;5017049;28;20026;-68
2022/10/09 08:53:02;;;;;;;30.95;5.03;;;13.50;99.90;;;;;;5034337;28;20025;-68
2022/10/09 08:55:33;;;;;;;27.58;4.35;;;13.50;99.90;;;;;;5016736;28;20033;-68
2022/10/09 08:58:11;;;;;;;33.58;3.50;;;13.60;99.90;;;;;;5015765;28;20056;-67
2022/10/09 09:01:00;;;;;;;26.75;4.22;;;13.70;99.90;;;;;;5016225;28;20393;-67
2022/10/09 09:03:44;;;;;;;22.70;3.42;;;13.60;99.90;;;;;;5020897;28;20115;-68
2022/10/09 09:06:46;;;;;;;26.23;4.38;;;13.50;99.90;;;;;;5042192;28;20056;-68
2022/10/09 09:09:26;;;;;;;30.38;3.45;;;13.50;99.90;;;;;;5040902;28;20107;-68
2022/10/09 09:12:16;;;;;;;28.13;3.38;;;13.40;99.90;;;;;;5054890;28;20027;-68
2022/10/09 09:15:22;;;;;;;19.63;2.88;;;13.40;99.90;;;;;;5039581;28;20018;-69
2022/10/09 09:18:06;;;;;;;18.08;3.40;;;13.60;99.90;;;;;;5038840;28;20025;-69
2022/10/09 09:20:49;;;;;;;28.33;4.25;;;13.60;99.90;;;;;;5065244;23;20052;-68
2022/10/09 09:23:15;;;;;;;22.15;3.13;;;13.60;99.90;;;;;;5055071;28;20021;-69
2022/10/09 09:25:44;;;;;;;22.90;2.55;;;13.80;99.90;;;;;;5055295;28;20025;-68
2022/10/09 09:28:20;;;;;;;24.63;3.85;;;13.80;99.90;;;;;;5055406;28;20021;-68
2022/10/09 09:30:54;;;;;;;22.55;2.47;;;13.90;99.90;;;;;;5043567;28;20021;-69
2022/10/09 09:33:47;;;;;;;26.90;2.85;;;14.00;99.90;;;;;;5035616;28;20052;-68
2022/10/09 09:36:43;;;;;;;26.23;3.63;;;14.10;99.90;;;;;;5035496;28;20555;-68
2022/10/09 09:39:11;;;;;;;28.42;3.53;;;14.10;99.90;;;;;;5035291;28;20045;-68
2022/10/09 09:41:38;;;;;;;31.90;3.42;;;14.20;99.90;;;;;;5034739;28;20028;-69
2022/10/09 09:44:06;;;;;;;28.30;3.45;;;14.40;99.90;;;;;;5035134;28;20032;-69
2022/10/09 09:46:31;;;;;;;34.00;3.72;;;14.40;99.90;;;;;;5035008;28;20481;-69
2022/10/09 09:48:57;;;;;;;20.85;2.80;;;14.50;99.90;;;;;;5034206;28;20049;-69
2022/10/09 09:51:30;;;;;;;23.75;2.95;;;14.30;99.90;;;;;;5033458;28;20044;-69
2022/10/09 09:54:04;;;;;;;16.23;3.10;;;14.30;99.90;;;;;;5032749;28;20010;-69
2022/10/09 09:56:39;;;;;;;16.95;2.70;;;14.40;99.90;;;;;;5034861;28;20036;-70
2022/10/09 09:59:06;;;;;;;24.77;2.70;;;14.30;99.90;;;;;;5034943;28;20089;-69
2022/10/09 10:01:32;;;;;;;18.60;2.83;;;14.50;99.90;;;;;;5034427;28;20029;-70
2022/10/09 10:04:01;;;;;;;16.02;3.25;;;14.50;99.90;;;;;;5034163;28;20029;-70
2022/10/09 10:06:40;;;;;;;10.02;2.50;;;14.40;99.90;;;;;;5034443;28;20040;-70
2022/10/09 10:09:13;;;;;;;20.23;3.47;;;14.20;99.90;;;;;;5034801;28;20376;-69
2022/10/09 10:11:58;;;;;;;20.60;2.80;;;14.10;99.90;;;;;;5034273;28;20093;-69
2022/10/09 10:14:24;;;;;;;19.63;4.18;;;13.90;99.90;;;;;;5022544;28;20033;-69
2022/10/09 10:16:54;;;;;;;37.40;3.25;;;13.90;99.90;;;;;;5034383;28;20032;-70
2022/10/09 10:19:23;;;;;;;20.23;2.47;;;13.80;99.90;;;;;;5034576;28;20021;-69
2022/10/09 10:22:00;;;;;;;20.63;3.03;;;13.70;99.90;;;;;;5033947;28;20073;-70
2022/10/09 10:24:44;;;;;;;30.80;3.85;;;13.60;99.90;;;;;;5034344;28;20124;-69
2022/10/09 10:27:12;;;;;;;15.00;2.83;;;13.50;99.90;;;;;;5034062;28;20036;-70
2022/10/09 10:29:42;;;;;;;24.63;4.32;;;13.40;99.90;;;;;;5034101;28;20074;-69
2022/10/09 10:32:21;;;;;;;22.58;3.47;;;13.20;99.90;;;;;;5033859;28;20045;-69
2022/10/09 10:34:59;;;;;;;17.13;2.58;;;13.20;99.90;;;;;;5033875;28;20057;-69
2022/10/09 10:37:38;;;;;;;25.33;3.03;;;13.20;99.90;;;;;;5032826;28;20021;-69
2022/10/09 10:40:04;;;;;;;23.33;3.33;;;13.50;99.90;;;;;;5034217;28;20018;-69
2022/10/09 10:43:01;;;;;;;25.10;3.67;;;13.80;99.90;;;;;;5033931;28;20025;-69
2022/10/09 10:45:51;;;;;;;15.15;3.40;;;14.10;99.90;;;;;;5033987;28;20021;-69
2022/10/09 10:48:24;;;;;;;14.95;1.90;;;14.30;99.90;;;;;;5013703;28;20508;-69
2022/10/09 10:51:17;;;;;;;27.02;2.95;;;14.60;99.90;;;;;;5020619;28;20025;-69
2022/10/09 10:53:54;;;;;;;13.47;1.97;;;14.80;99.90;;;;;;5033424;28;20029;-69
2022/10/09 10:56:34;;;;;;;18.10;2.65;;;15.20;99.90;;;;;;5033594;28;20389;-69
2022/10/09 10:59:18;;;;;;;14.52;2.10;;;15.50;99.90;;;;;;5034053;28;20025;-69
2022/10/09 11:02:02;;;;;;;14.18;2.88;;;15.60;99.90;;;;;;5019510;28;20061;-69
2022/10/09 11:04:39;;;;;;;;;;;15.50;99.90;;;;;;5014303;28;20022;-69
2022/10/09 11:07:25;;;;;;;17.60;2.00;;;15.20;99.90;;;;;;5029543;28;20353;-70
2022/10/09 11:10:22;;;;;;;15.80;2.13;;;14.80;99.90;;;;;;5034156;28;20393;-70
2022/10/09 11:12:57;;;;;;;21.55;4.30;;;15.00;99.90;;;;;;5017401;28;20058;-70
2022/10/09 11:15:46;;;;;;;21.42;2.72;;;15.00;99.90;;;;;;5013785;28;20022;-69
2022/10/09 11:18:30;;;;;;;13.98;2.58;;;15.00;99.90;;;;;;5008197;28;20042;-70
2022/10/09 11:21:19;;;;;;;15.90;2.63;;;15.20;99.90;;;;;;5033247;28;20081;-69
2022/10/09 11:24:06;;;;;;;10.65;1.67;;;15.40;99.90;;;;;;5033507;28;20500;-69
2022/10/09 11:26:40;;;;;;;21.05;3.00;;;15.70;99.90;;;;;;5033350;28;20083;-69
2022/10/09 11:29:14;;;;;;;12.75;1.90;;;16.20;99.90;;;;;;5032916;28;20381;-69
2022/10/09 11:31:42;;;;;;;;;;;16.70;99.90;;;;;;5033725;28;20021;-69
2022/10/09 11:34:20;;;;;;;12.85;2.22;;;16.90;99.90;;;;;;5033361;28;19909;-69
2022/10/09 11:36:46;;;;;;;15.80;2.05;;;16.50;99.90;;;;;;5033627;28;20022;-69
2022/10/09 11:39:21;;;;;;;16.35;2.03;;;16.20;99.90;;;;;;5031546;28;20040;-70
2022/10/09 11:41:47;;;;;;;11.35;2.08;;;15.70;99.90;;;;;;5033526;28;20022;-69
2022/10/09 11:44:24;;;;;;;16.80;2.35;;;15.40;99.90;;;;;;5033481;28;20025;-69
2022/10/09 11:47:02;;;;;;;12.30;2.05;;;15.00;99.90;;;;;;5033314;28;20358;-70
2022/10/09 11:49:57;;;;;;;7.75;1.67;;;14.90;99.90;;;;;;5033281;28;20091;-69
2022/10/09 11:52:22;;;;;;;16.10;2.10;;;15.00;99.90;;;;;;5032897;28;20025;-69
2022/10/09 11:54:48;;;;;;;10.07;2.53;;;15.10;99.90;;;;;;5033118;28;20026;-69
2022/10/09 11:57:13;;;;;;;8.45;2.10;;;15.00;99.90;;;;;;5033112;28;20033;-69
2022/10/09 11:59:42;;;;;;;22.70;3.10;;;14.90;99.90;;;;;;5032983;28;20478;-69
2022/10/09 12:02:29;;;;;;;15.50;2.78;;;14.90;99.90;;;;;;5033289;28;20018;-70
2022/10/09 12:04:55;;;;;;;14.73;1.90;;;14.90;99.90;;;;;;5032682;28;20397;-70
2022/10/09 12:07:38;;;;;;;11.35;1.73;;;15.00;99.90;;;;;;5033217;28;20018;-70
2022/10/09 12:10:03;;;;;;;13.98;1.92;;;15.40;99.90;;;;;;5033052;28;20021;-70
2022/10/09 12:12:30;;;;;;;12.73;1.85;;;16.10;99.90;;;;;;5032963;28;20032;-70
2022/10/09 12:14:56;;;;;;;7.18;1.83;;;16.80;99.90;;;;;;5032935;28;20045;-70
2022/10/09 12:17:21;;;;;;;19.50;2.08;;;17.50;99.90;;;;;;5032443;28;20062;-70
2022/10/09 12:19:52;;;;;;;9.73;1.80;;;17.80;99.90;;;;;;5032761;28;20119;-70
2022/10/09 12:22:22;;;;;;;14.95;2.60;;;17.90;99.90;;;;;;5033209;28;20067;-70
2022/10/09 12:24:52;;;;;;;9.57;1.63;;;17.90;99.90;;;;;;5032954;28;20032;-70
2022/10/09 12:27:24;;;;;;;12.23;2.33;;;17.70;99.90;;;;;;5032375;28;20026;-70
2022/10/09 12:29:54;;;;;;;17.92;2.33;;;18.30;99.90;;;;;;5033191;28;20022;-70
2022/10/09 12:32:28;;;;;;;11.73;1.40;;;18.10;99.90;;;;;;5036615;28;20096;-70
2022/10/09 12:34:55;;;;;;;9.57;1.60;;;18.50;99.90;;;;;;5035997;28;20033;-69
2022/10/09 12:37:31;;;;;;;11.52;2.75;;;19.00;99.90;;;;;;5036667;28;20432;-70
2022/10/09 12:40:07;;;;;;;9.95;1.83;;;19.00;99.90;;;;;;5036509;28;20025;-70
2022/10/09 12:42:32;;;;;;;11.85;1.60;;;19.40;99.90;;;;;;5018586;28;20358;-70
2022/10/09 12:44:58;;;;;;;11.20;1.70;;;19.30;99.90;;;;;;5035907;28;20041;-70
2022/10/09 12:47:27;;;;;;;10.05;2.05;;;19.00;99.90;;;;;;5036377;28;20025;-70
2022/10/09 12:50:29;;;;;;;10.45;1.77;;;18.90;99.90;;;;;;5032799;28;20155;-69
2022/10/09 12:53:02;;;;;;;14.23;1.50;;;18.70;99.90;;;;;;5030569;28;20414;-70
2022/10/09 12:55:31;;;;;;;11.23;1.48;;;18.10;99.90;;;;;;5036410;28;20025;-70
2022/10/09 12:58:04;;;;;;;12.73;1.90;;;18.30;99.90;;;;;;5036044;28;20555;-70
2022/10/09 13:00:32;;;;;;;16.70;1.83;;;18.50;99.90;;;;;;5035535;28;20109;-69
2022/10/09 13:02:57;;;;;;;20.05;2.38;;;18.80;99.90;;;;;;5035938;28;20206;-70